Time;durP1;ratioP1;P1;durP2;ratioP2;P2;SDS_P1;SDS_P2;PMS_P1;PMS_P2;Temp;Humidity;BMP_temperature;BMP_pressure;BME280_temperature;BME280_humidity;BME280_pressure;Samples;Min_cycle;Max_cycle;Signal;HPM_P1;HPM_P2
2023/07/26 00:00:20;;;;;;;32.97;20.40;;;;;10.70;93753.00;;;;7403061;19;20144;-81
2023/07/26 00:02:56;;;;;;;34.00;20.90;;;;;10.70;93749.00;;;;7401169;19;20143;-79
2023/07/26 00:05:24;;;;;;;28.60;18.02;;;;;10.60;93745.00;;;;7400018;19;20170;-78
2023/07/26 00:07:59;;;;;;;26.87;18.70;;;;;10.70;93747.00;;;;7401610;19;20166;-78
2023/07/26 00:10:28;;;;;;;26.93;19.47;;;;;10.70;93744.00;;;;7401795;19;20144;-78
2023/07/26 00:13:16;;;;;;;27.57;18.40;;;;;10.80;93750.00;;;;7399698;19;20136;-81
2023/07/26 00:16:05;;;;;;;27.40;17.92;;;;;10.80;93750.00;;;;7395399;19;20667;-79
2023/07/26 00:18:44;;;;;;;29.13;17.37;;;;;10.70;93749.00;;;;7401169;19;20607;-80
2023/07/26 00:21:19;;;;;;;24.67;17.53;;;;;10.60;93755.00;;;;7399522;19;20500;-80
2023/07/26 00:23:55;;;;;;;20.60;15.80;;;;;10.60;93756.00;;;;7399308;19;20129;-78
2023/07/26 00:26:29;;;;;;;19.07;14.43;;;;;10.50;93755.00;;;;7399218;19;20125;-77
2023/07/26 00:29:03;;;;;;;27.67;16.17;;;;;10.40;93759.00;;;;7399768;19;20133;-79
2023/07/26 00:31:38;;;;;;;23.02;14.98;;;;;10.40;93759.00;;;;7400796;19;20121;-80
2023/07/26 00:34:12;;;;;;;22.27;12.80;;;;;10.30;93766.00;;;;7397235;19;20155;-81
2023/07/26 00:36:41;;;;;;;19.63;12.77;;;;;10.30;93765.00;;;;7397679;19;20235;-79
2023/07/26 00:39:19;;;;;;;21.90;13.23;;;;;10.20;93745.00;;;;7397887;19;20132;-77
2023/07/26 00:41:54;;;;;;;19.03;11.47;;;;;10.20;93753.00;;;;7399020;19;20132;-78
2023/07/26 00:44:22;;;;;;;16.67;10.80;;;;;10.20;93750.00;;;;7396702;19;20159;-79
2023/07/26 00:46:57;;;;;;;18.47;11.50;;;;;10.10;93762.00;;;;7396962;19;20188;-79
2023/07/26 00:49:26;;;;;;;15.37;10.93;;;;;10.10;93758.00;;;;7398357;19;20600;-79
2023/07/26 00:52:00;;;;;;;15.80;11.03;;;;;10.10;93765.00;;;;7396981;19;20156;-76
2023/07/26 00:54:36;;;;;;;19.20;12.87;;;;;10.10;93767.00;;;;7396974;19;20132;-78
2023/07/26 00:57:15;;;;;;;22.77;13.40;;;;;10.10;93771.00;;;;7396303;19;20655;-80
2023/07/26 00:59:52;;;;;;;21.33;12.20;;;;;10.10;93772.00;;;;7396844;19;20152;-77
2023/07/26 01:02:29;;;;;;;19.40;12.53;;;;;10.00;93775.00;;;;7394777;19;20161;-78
2023/07/26 01:05:05;;;;;;;19.00;11.93;;;;;10.10;93775.00;;;;7398252;19;20136;-77
2023/07/26 01:08:02;;;;;;;19.47;12.87;;;;;10.10;93769.00;;;;7394362;19;20251;-80
2023/07/26 01:10:49;;;;;;;16.27;11.57;;;;;10.20;93775.00;;;;7395523;19;20465;-78
2023/07/26 01:13:44;;;;;;;18.87;13.63;;;;;10.10;93782.00;;;;7396225;19;20140;-79
2023/07/26 01:16:19;;;;;;;17.97;12.73;;;;;10.10;93775.00;;;;7393112;19;20173;-77
2023/07/26 01:19:00;;;;;;;17.83;13.10;;;;;10.10;93772.00;;;;7397417;19;20136;-78
2023/07/26 01:21:38;;;;;;;20.47;13.33;;;;;10.10;93768.00;;;;7396441;19;20140;-79
2023/07/26 01:24:07;;;;;;;17.27;12.60;;;;;10.10;93775.00;;;;7397445;19;20162;-79
2023/07/26 01:26:41;;;;;;;16.37;13.07;;;;;10.20;93775.00;;;;7394107;19;20192;-76
2023/07/26 01:29:11;;;;;;;20.40;13.13;;;;;10.10;93776.00;;;;7393766;19;21046;-79
2023/07/26 01:31:46;;;;;;;20.50;13.23;;;;;10.20;93784.00;;;;7397412;19;20588;-77
2023/07/26 01:34:15;;;;;;;18.57;13.23;;;;;10.10;93767.00;;;;7397715;19;20192;-80
2023/07/26 01:36:53;;;;;;;26.10;12.80;;;;;10.10;93778.00;;;;7394455;19;20131;-79
2023/07/26 01:39:29;;;;;;;18.83;13.30;;;;;10.10;93787.00;;;;7397661;19;20165;-80
2023/07/26 01:42:04;;;;;;;16.23;12.13;;;;;10.10;93781.00;;;;7398417;19;20147;-79
2023/07/26 01:44:38;;;;;;;19.27;13.03;;;;;10.00;93777.00;;;;7398421;19;20129;-79
2023/07/26 01:47:12;;;;;;;23.50;12.73;;;;;10.10;93781.00;;;;7395683;19;20171;-79
2023/07/26 01:49:42;;;;;;;16.03;12.10;;;;;10.00;93771.00;;;;7397154;19;20552;-77
2023/07/26 01:52:21;;;;;;;20.57;12.47;;;;;10.00;93771.00;;;;7401128;19;20132;-75
2023/07/26 01:54:55;;;;;;;15.17;11.57;;;;;10.00;93776.00;;;;7402096;19;20148;-79
2023/07/26 01:57:32;;;;;;;19.57;11.50;;;;;9.90;93780.00;;;;7401235;19;20148;-78
2023/07/26 02:00:00;;;;;;;15.80;11.37;;;;;9.80;93778.00;;;;7401522;19;20169;-79
2023/07/26 02:02:35;;;;;;;19.50;11.57;;;;;9.80;93781.00;;;;7402260;19;20139;-80
2023/07/26 02:05:11;;;;;;;14.33;10.70;;;;;9.70;93780.00;;;;7402698;19;20497;-78
2023/07/26 02:07:39;;;;;;;14.50;11.17;;;;;9.70;93788.00;;;;7403244;19;20149;-77
2023/07/26 02:10:17;;;;;;;15.37;11.53;;;;;9.70;93777.00;;;;7402463;19;20222;-77
2023/07/26 02:12:45;;;;;;;20.67;11.97;;;;;9.70;93781.00;;;;7402828;19;20601;-77
2023/07/26 02:15:21;;;;;;;19.47;10.80;;;;;9.80;93789.00;;;;7400605;19;20187;-80
2023/07/26 02:17:56;;;;;;;18.20;11.53;;;;;9.70;93788.00;;;;7399417;19;20149;-77
2023/07/26 02:20:33;;;;;;;18.03;11.30;;;;;9.80;93786.00;;;;7403297;19;20609;-78
2023/07/26 02:23:02;;;;;;;18.87;11.53;;;;;9.80;93786.00;;;;7401119;19;20145;-76
2023/07/26 02:25:38;;;;;;;19.33;11.90;;;;;9.70;93790.00;;;;7400828;19;20604;-79
2023/07/26 02:28:06;;;;;;;17.57;12.00;;;;;9.70;93795.00;;;;7402314;19;20153;-78
2023/07/26 02:30:39;;;;;;;17.00;11.57;;;;;9.70;93795.00;;;;7402317;19;20489;-78
2023/07/26 02:33:14;;;;;;;20.40;11.67;;;;;9.60;93795.00;;;;7403719;19;20245;-80
2023/07/26 02:35:43;;;;;;;15.77;11.90;;;;;9.60;93794.00;;;;7400454;19;20141;-78
2023/07/26 02:38:20;;;;;;;20.27;13.63;;;;;9.60;93801.00;;;;7402789;19;20146;-77
2023/07/26 02:40:49;;;;;;;18.80;12.43;;;;;9.60;93795.00;;;;7401424;19;20480;-78
2023/07/26 02:43:19;;;;;;;25.27;13.00;;;;;9.50;93798.00;;;;7401638;19;20585;-79
2023/07/26 02:46:11;;;;;;;22.63;13.37;;;;;9.50;93802.00;;;;7402896;19;20604;-77
2023/07/26 02:48:39;;;;;;;18.17;13.97;;;;;9.60;93806.00;;;;7401618;19;20173;-76
2023/07/26 02:51:14;;;;;;;24.50;14.27;;;;;9.40;93800.00;;;;7401235;19;20649;-79
2023/07/26 02:53:42;;;;;;;21.00;14.40;;;;;9.40;93807.00;;;;7401377;19;20149;-77
2023/07/26 02:56:17;;;;;;;26.47;14.73;;;;;9.40;93812.00;;;;7396510;19;20155;-79
2023/07/26 02:58:52;;;;;;;25.77;17.13;;;;;9.50;93807.00;;;;7400852;19;20140;-77
2023/07/26 03:01:26;;;;;;;28.90;17.67;;;;;9.40;93814.00;;;;7401281;19;20137;-79
2023/07/26 03:03:54;;;;;;;28.63;17.33;;;;;9.40;93813.00;;;;7399557;19;20145;-76
2023/07/26 03:06:30;;;;;;;27.33;18.20;;;;;9.50;93816.00;;;;7401304;19;20149;-78
2023/07/26 03:09:07;;;;;;;30.97;21.57;;;;;9.40;93815.00;;;;7401999;19;20156;-77
2023/07/26 03:11:41;;;;;;;32.67;22.83;;;;;9.50;93821.00;;;;7401662;19;20145;-78
2023/07/26 03:14:10;;;;;;;31.73;21.30;;;;;9.40;93829.00;;;;7401072;19;20145;-77
2023/07/26 03:16:53;;;;;;;37.70;23.83;;;;;9.50;93831.00;;;;7398913;19;20185;-79
2023/07/26 03:19:34;;;;;;;34.53;23.07;;;;;9.60;93830.00;;;;7401792;19;20604;-77
2023/07/26 03:22:11;;;;;;;38.90;25.13;;;;;9.60;93830.00;;;;7401879;19;20161;-79
2023/07/26 03:24:43;;;;;;;33.97;23.80;;;;;9.50;93829.00;;;;7400430;19;20207;-78
2023/07/26 03:27:19;;;;;;;38.30;24.00;;;;;9.60;93836.00;;;;7402072;19;20144;-78
2023/07/26 03:29:50;;;;;;;37.07;24.43;;;;;9.70;93848.00;;;;7401240;19;20133;-78
2023/07/26 03:32:25;;;;;;;35.17;23.70;;;;;9.80;93847.00;;;;7399472;19;20219;-79
2023/07/26 03:34:55;;;;;;;37.13;23.83;;;;;9.90;93851.00;;;;7399643;19;20143;-79
2023/07/26 03:37:31;;;;;;;35.70;23.73;;;;;9.90;93850.00;;;;7398539;19;20585;-79
2023/07/26 03:40:08;;;;;;;33.10;21.10;;;;;9.80;93841.00;;;;7399290;19;20167;-78
2023/07/26 03:42:42;;;;;;;29.63;21.47;;;;;9.80;93845.00;;;;7397953;19;20147;-79
2023/07/26 03:45:10;;;;;;;31.33;22.40;;;;;9.70;93848.00;;;;7396335;19;20129;-82
2023/07/26 03:47:45;;;;;;;33.57;21.70;;;;;9.60;93852.00;;;;7400554;19;20133;-81
2023/07/26 03:50:16;;;;;;;29.83;20.13;;;;;9.70;93854.00;;;;7399888;19;20153;-79
2023/07/26 03:52:51;;;;;;;24.80;19.03;;;;;9.70;93854.00;;;;7398427;19;20187;-81
2023/07/26 03:55:19;;;;;;;31.17;20.10;;;;;9.70;93855.00;;;;7399704;19;20129;-80
2023/07/26 03:57:53;;;;;;;26.23;18.43;;;;;9.60;93849.00;;;;7397200;19;20148;-79
2023/07/26 04:00:28;;;;;;;31.70;19.40;;;;;9.50;93851.00;;;;7399795;19;20148;-81
2023/07/26 04:03:04;;;;;;;28.67;18.93;;;;;9.60;93853.00;;;;7400059;19;20165;-80
2023/07/26 04:05:40;;;;;;;28.07;19.07;;;;;9.50;93852.00;;;;7397308;19;20239;-80
2023/07/26 04:08:09;;;;;;;22.83;17.97;;;;;9.60;93852.00;;;;7399803;19;20125;-81
2023/07/26 04:10:43;;;;;;;27.73;17.40;;;;;9.60;93853.00;;;;7399450;19;20514;-82
2023/07/26 04:13:13;;;;;;;21.77;16.90;;;;;9.60;93857.00;;;;7397887;19;20149;-82
2023/07/26 04:15:56;;;;;;;24.20;17.30;;;;;9.60;93861.00;;;;7397062;19;20184;-80
2023/07/26 04:18:30;;;;;;;28.00;18.07;;;;;9.80;93858.00;;;;7398880;19;20145;-82
2023/07/26 04:21:04;;;;;;;26.43;17.97;;;;;9.80;93862.00;;;;7394753;19;20137;-81
2023/07/26 04:23:32;;;;;;;31.10;17.53;;;;;9.70;93869.00;;;;7398205;19;20167;-81
2023/07/26 04:26:06;;;;;;;30.23;17.63;;;;;9.70;93817.00;;;;7400661;19;20605;-82
2023/07/26 04:28:36;;;;;;;31.77;18.73;;;;;9.80;93864.00;;;;7398467;19;20145;-80
2023/07/26 04:31:12;;;;;;;24.67;17.93;;;;;10.00;93868.00;;;;7397513;19;20600;-80
2023/07/26 04:33:48;;;;;;;30.17;17.93;;;;;10.00;93865.00;;;;7400830;19;20140;-79
2023/07/26 04:36:16;;;;;;;25.63;17.53;;;;;10.10;93866.00;;;;7397822;19;20597;-79
2023/07/26 04:38:47;;;;;;;21.83;16.00;;;;;10.00;93866.00;;;;7396647;19;20155;-78
2023/07/26 04:41:25;;;;;;;26.17;17.20;;;;;9.90;93865.00;;;;7396970;19;20512;-79
2023/07/26 04:44:02;;;;;;;22.07;17.60;;;;;9.90;93873.00;;;;7396617;19;20128;-76
2023/07/26 04:46:30;;;;;;;24.17;17.00;;;;;9.90;93870.00;;;;7397672;19;20618;-77
2023/07/26 04:49:04;;;;;;;23.20;15.80;;;;;9.90;93876.00;;;;7396403;19;20140;-78
2023/07/26 04:51:32;;;;;;;27.53;16.90;;;;;9.90;93872.00;;;;7395043;19;20128;-81
2023/07/26 04:54:07;;;;;;;20.80;16.13;;;;;10.00;93878.00;;;;7392012;19;20144;-79
2023/07/26 04:56:43;;;;;;;23.27;14.70;;;;;10.00;93873.00;;;;7393637;19;20140;-79
2023/07/26 04:59:18;;;;;;;20.97;15.83;;;;;10.20;93866.00;;;;7396491;19;20145;-82
2023/07/26 05:01:46;;;;;;;26.90;14.57;;;;;10.20;93867.00;;;;7394753;19;20149;-80
2023/07/26 05:04:21;;;;;;;24.33;15.57;;;;;10.20;93869.00;;;;7395136;19;20207;-79
2023/07/26 05:06:59;;;;;;;16.07;13.60;;;;;10.30;93875.00;;;;7398364;19;20136;-78
2023/07/26 05:09:33;;;;;;;18.77;13.77;;;;;10.40;93873.00;;;;7398300;19;20767;-76
2023/07/26 05:12:08;;;;;;;16.33;12.83;;;;;10.40;93874.00;;;;7394873;19;20248;-77
2023/07/26 05:14:44;;;;;;;15.20;12.40;;;;;10.40;93886.00;;;;7394052;19;20139;-78
2023/07/26 05:17:24;;;;;;;23.08;12.23;;;;;10.50;93895.00;;;;7394659;19;20502;-81
2023/07/26 05:19:52;;;;;;;17.55;12.38;;;;;10.50;93898.00;;;;7396749;19;20173;-76
2023/07/26 05:22:29;;;;;;;16.77;12.45;;;;;10.40;93894.00;;;;7393978;19;20532;-77
2023/07/26 05:25:04;;;;;;;14.52;11.73;;;;;10.40;93891.00;;;;7395577;19;20636;-76
2023/07/26 05:27:38;;;;;;;18.15;11.40;;;;;10.50;93886.00;;;;7397498;19;20144;-78
2023/07/26 05:30:07;;;;;;;16.88;11.18;;;;;10.50;93892.00;;;;7396191;19;20170;-79
2023/07/26 05:32:44;;;;;;;15.30;11.25;;;;;10.70;93898.00;;;;7395096;19;20651;-78
2023/07/26 05:35:27;;;;;;;15.68;11.02;;;;;10.80;93891.00;;;;7394200;19;20136;-77
2023/07/26 05:38:09;;;;;;;15.98;9.88;;;;;10.80;93903.00;;;;7392195;19;20141;-77
2023/07/26 05:40:44;;;;;;;13.70;10.60;;;;;10.70;93904.00;;;;7394051;19;20172;-77
2023/07/26 05:43:18;;;;;;;16.15;10.35;;;;;10.80;93905.00;;;;7393663;19;20148;-76
2023/07/26 05:45:46;;;;;;;15.13;10.87;;;;;10.80;93904.00;;;;7395146;19;20145;-77
2023/07/26 05:48:23;;;;;;;15.43;9.77;;;;;10.70;93901.00;;;;7395824;19;20195;-77
2023/07/26 05:50:50;;;;;;;13.13;9.50;;;;;10.70;93902.00;;;;7394391;19;20147;-78
2023/07/26 05:53:30;;;;;;;11.98;8.70;;;;;10.70;93896.00;;;;7396301;19;20128;-81
2023/07/26 05:56:04;;;;;;;12.90;9.85;;;;;10.80;93907.00;;;;7394986;19;20599;-77
2023/07/26 05:58:35;;;;;;;12.30;8.88;;;;;10.80;93903.00;;;;7392879;19;20168;-76
2023/07/26 06:01:13;;;;;;;11.93;8.82;;;;;10.90;93905.00;;;;7393021;19;20680;-78
2023/07/26 06:03:43;;;;;;;13.88;8.60;;;;;10.70;93908.00;;;;7394067;19;20497;-80
2023/07/26 06:06:17;;;;;;;14.23;8.85;;;;;10.80;93909.00;;;;7395170;19;20116;-80
2023/07/26 06:08:54;;;;;;;14.30;8.68;;;;;10.70;93904.00;;;;7396756;19;20132;-79
2023/07/26 06:11:24;;;;;;;10.52;8.27;;;;;10.70;93898.00;;;;7396667;19;20522;-77
2023/07/26 06:14:10;;;;;;;10.93;8.43;;;;;10.60;93899.00;;;;7396985;19;20137;-78
2023/07/26 06:16:38;;;;;;;11.82;8.35;;;;;10.80;93909.00;;;;7391334;19;21204;-79
2023/07/26 06:19:19;;;;;;;12.10;8.83;;;;;10.60;93904.00;;;;7395003;19;20204;-78
2023/07/26 06:21:47;;;;;;;10.20;7.10;;;;;10.70;93911.00;;;;7393954;19;20573;-78
2023/07/26 06:24:22;;;;;;;13.43;8.43;;;;;10.80;93916.00;;;;7394857;19;20230;-79
2023/07/26 06:26:59;;;;;;;9.50;8.45;;;;;10.80;93928.00;;;;7392229;19;20169;-76
2023/07/26 06:29:35;;;;;;;13.30;7.90;;;;;10.90;93932.00;;;;7393698;19;20143;-79
2023/07/26 06:32:11;;;;;;;11.18;8.13;;;;;10.90;93943.00;;;;7393320;19;20165;-79
2023/07/26 06:34:45;;;;;;;9.63;8.00;;;;;11.00;93944.00;;;;7392255;19;20134;-79
2023/07/26 06:37:13;;;;;;;9.50;8.10;;;;;11.00;93942.00;;;;7394406;19;20148;-79
2023/07/26 06:39:48;;;;;;;10.95;8.23;;;;;10.80;93945.00;;;;7401250;19;20247;-79
2023/07/26 06:42:24;;;;;;;16.05;8.20;;;;;11.10;93944.00;;;;7401076;19;20477;-80
2023/07/26 06:44:53;;;;;;;10.15;7.82;;;;;11.10;93943.00;;;;7399965;19;20166;-80
2023/07/26 06:47:24;;;;;;;9.52;7.85;;;;;10.90;93942.00;;;;7401672;19;20612;-79
2023/07/26 06:49:57;;;;;;;12.55;6.90;;;;;10.80;93941.00;;;;7402558;19;20145;-79
2023/07/26 06:52:30;;;;;;;11.52;6.97;;;;;10.80;93932.00;;;;7398251;19;20762;-79
2023/07/26 06:55:09;;;;;;;8.05;6.75;;;;;10.80;93938.00;;;;7400251;19;20164;-80
2023/07/26 06:57:37;;;;;;;11.18;6.50;;;;;10.90;93935.00;;;;7400925;19;20659;-81
2023/07/26 07:00:15;;;;;;;7.95;5.95;;;;;11.00;93937.00;;;;7401654;19;20148;-80
2023/07/26 07:02:44;;;;;;;8.57;5.68;;;;;11.00;93936.00;;;;7399883;19;20608;-80
2023/07/26 07:05:19;;;;;;;5.72;4.90;;;;;10.90;93937.00;;;;7403697;19;20149;-81
2023/07/26 07:07:55;;;;;;;10.40;4.82;;;;;11.00;93947.00;;;;7403679;19;20152;-82
2023/07/26 07:10:24;;;;;;;6.97;4.65;;;;;10.90;93946.00;;;;7401636;19;20159;-79
2023/07/26 07:12:58;;;;;;;6.43;4.05;;;;;10.90;93952.00;;;;7400235;19;20592;-80
2023/07/26 07:15:35;;;;;;;6.63;4.70;;;;;11.00;93949.00;;;;7399679;19;20140;-81
2023/07/26 07:18:22;;;;;;;5.72;4.75;;;;;11.20;93955.00;;;;7397653;19;20172;-81
2023/07/26 07:21:01;;;;;;;6.78;5.05;;;;;11.20;93945.00;;;;7399605;19;20152;-81
2023/07/26 07:23:36;;;;;;;6.20;4.90;;;;;11.30;93951.00;;;;7401282;19;20153;-82
2023/07/26 07:26:04;;;;;;;5.85;4.45;;;;;11.30;93959.00;;;;7400922;19;20145;-81
2023/07/26 07:28:39;;;;;;;6.38;4.20;;;;;11.20;93953.00;;;;7397932;19;20916;-79
2023/07/26 07:31:08;;;;;;;4.40;3.90;;;;;11.40;93955.00;;;;7399650;19;20152;-80
2023/07/26 07:33:43;;;;;;;4.65;3.95;;;;;11.60;93940.00;;;;7399912;19;20124;-81
2023/07/26 07:36:15;;;;;;;4.20;3.80;;;;;12.00;93937.00;;;;7399700;19;20146;-79
2023/07/26 07:38:51;;;;;;;3.90;3.60;;;;;12.30;93947.00;;;;7398191;19;20144;-79
2023/07/26 07:41:30;;;;;;;3.60;3.30;;;;;12.40;93935.00;;;;7399628;19;20148;-80
2023/07/26 07:44:05;;;;;;;4.43;3.05;;;;;12.60;93947.00;;;;7402522;19;20128;-84
2023/07/26 07:46:35;;;;;;;3.95;3.00;;;;;12.20;93946.00;;;;7399614;19;20161;-81
2023/07/26 07:49:28;;;;;;;4.10;2.70;;;;;12.40;93940.00;;;;7398653;19;20493;-81
2023/07/26 07:51:56;;;;;;;3.92;2.80;;;;;12.40;93946.00;;;;7401329;19;20135;-81
2023/07/26 07:54:32;;;;;;;2.83;2.50;;;;;12.20;93944.00;;;;7400787;19;20617;-80
2023/07/26 07:56:59;;;;;;;5.13;2.65;;;;;12.00;93940.00;;;;7397192;19;20686;-81
2023/07/26 07:59:35;;;;;;;4.82;2.13;;;;;11.90;93958.00;;;;7397955;19;20158;-82
2023/07/26 08:02:09;;;;;;;2.17;1.98;;;;;12.00;93939.00;;;;7398446;19;20625;-80
2023/07/26 08:04:44;;;;;;;2.10;1.90;;;;;12.30;93935.00;;;;7399549;19;20524;-77
2023/07/26 08:07:19;;;;;;;2.30;2.10;;;;;12.40;93933.00;;;;7398122;19;20132;-77
2023/07/26 08:09:54;;;;;;;2.78;2.05;;;;;12.70;93934.00;;;;7398041;19;20211;-78
2023/07/26 08:12:37;;;;;;;2.20;1.95;;;;;12.80;93947.00;;;;7398922;19;20152;-76
2023/07/26 08:15:12;;;;;;;2.97;2.00;;;;;12.70;93945.00;;;;7397689;19;20608;-74
2023/07/26 08:17:47;;;;;;;3.03;2.00;;;;;12.80;93951.00;;;;7396178;19;20149;-75
2023/07/26 08:20:22;;;;;;;3.10;1.90;;;;;12.60;93948.00;;;;7395996;19;20783;-76
2023/07/26 08:22:56;;;;;;;2.13;1.88;;;;;12.50;93958.00;;;;7395091;19;20157;-76
2023/07/26 08:25:31;;;;;;;2.55;1.80;;;;;12.50;93962.00;;;;7396197;19;20220;-75
2023/07/26 08:28:00;;;;;;;1.92;1.83;;;;;12.50;93961.00;;;;7396974;19;20141;-78
2023/07/26 08:30:36;;;;;;;2.67;1.67;;;;;12.20;93973.00;;;;7396334;19;20144;-81
2023/07/26 08:33:04;;;;;;;2.28;1.60;;;;;11.80;93970.00;;;;7407327;19;20186;-77
2023/07/26 08:35:39;;;;;;;2.50;1.67;;;;;11.60;93973.00;;;;7395179;19;20635;-78
2023/07/26 08:38:08;;;;;;;2.60;1.90;;;;;11.50;93978.00;;;;7398160;19;20212;-78
2023/07/26 08:40:47;;;;;;;1.85;1.60;;;;;11.40;93973.00;;;;7396119;19;20227;-78
2023/07/26 08:43:28;;;;;;;2.00;1.80;;;;;11.50;93975.00;;;;7396883;19;20236;-78
2023/07/26 08:46:05;;;;;;;3.20;1.90;;;;;11.40;93975.00;;;;7396822;19;20217;-77
2023/07/26 08:48:36;;;;;;;2.17;1.98;;;;;11.10;93982.00;;;;7397038;19;20481;-79
2023/07/26 08:51:11;;;;;;;2.08;1.70;;;;;10.90;93979.00;;;;7396492;19;20252;-81
2023/07/26 08:53:54;;;;;;;2.05;1.83;;;;;10.70;93977.00;;;;7398183;19;21064;-79
2023/07/26 08:56:30;;;;;;;1.88;1.50;;;;;10.70;93978.00;;;;7394518;19;20136;-78
2023/07/26 08:58:59;;;;;;;2.42;2.00;;;;;10.80;93971.00;;;;7394883;19;20149;-79
2023/07/26 09:01:34;;;;;;;3.03;2.08;;;;;11.20;93960.00;;;;7391649;19;20141;-79
2023/07/26 09:04:33;;;;;;;2.30;2.10;;;;;12.20;93946.00;;;;7396718;19;20592;-80
2023/07/26 09:07:04;;;;;;;3.10;2.20;;;;;12.80;93961.00;;;;7396477;19;20145;-78
2023/07/26 09:09:41;;;;;;;2.70;2.30;;;;;12.90;93973.00;;;;7394806;19;20148;-78
2023/07/26 09:12:09;;;;;;;2.40;1.90;;;;;12.50;93978.00;;;;7384374;19;20141;-81
2023/07/26 09:14:48;;;;;;;3.13;1.80;;;;;12.10;93975.00;;;;7382175;19;20188;-77
2023/07/26 09:17:41;;;;;;;2.42;2.00;;;;;12.20;93973.00;;;;7389022;19;20161;-80
2023/07/26 09:20:20;;;;;;;2.22;2.03;;;;;12.60;93969.00;;;;7387031;19;20489;-79
2023/07/26 09:23:10;;;;;;;2.10;1.90;;;;;12.60;93966.00;;;;7393284;19;20181;-78
2023/07/26 09:25:47;;;;;;;3.15;2.17;;;;;12.30;93978.00;;;;7390494;19;20520;-79
2023/07/26 09:28:16;;;;;;;2.97;2.20;;;;;12.50;93994.00;;;;7384611;19;20132;-78
2023/07/26 09:30:51;;;;;;;5.25;2.20;;;;;12.30;93990.00;;;;7386491;19;20148;-77
2023/07/26 09:34:22;;;;;;;2.70;2.30;;;;;12.20;93983.00;;;;7387070;19;20128;-78
2023/07/26 09:36:52;;;;;;;3.00;2.70;;;;;11.90;93977.00;;;;7381876;19;20124;-75
2023/07/26 09:39:32;;;;;;;3.72;2.30;;;;;12.20;93971.00;;;;7384202;19;20613;-78
2023/07/26 09:42:06;;;;;;;4.28;3.15;;;;;12.80;93971.00;;;;7385183;19;20183;-76
2023/07/26 09:44:46;;;;;;;3.38;3.08;;;;;13.10;93962.00;;;;7384455;19;20715;-77
2023/07/26 09:47:35;;;;;;;3.22;2.80;;;;;13.50;93965.00;;;;7383494;19;20144;-77
2023/07/26 09:50:25;;;;;;;7.10;3.47;;;;;13.50;93956.00;;;;7384266;19;20153;-79
2023/07/26 09:53:06;;;;;;;3.10;2.90;;;;;14.00;93954.00;;;;7384876;19;20121;-78
2023/07/26 09:55:42;;;;;;;3.10;2.80;;;;;14.10;93950.00;;;;7382963;19;20303;-79
2023/07/26 09:58:22;;;;;;;3.20;2.90;;;;;14.20;93960.00;;;;7384484;19;20499;-82
2023/07/26 10:01:02;;;;;;;3.78;3.05;;;;;14.30;93961.00;;;;7381625;19;20176;-80
2023/07/26 10:03:35;;;;;;;2.85;2.55;;;;;14.10;93969.00;;;;7386516;19;20637;-78
2023/07/26 10:06:13;;;;;;;7.43;2.63;;;;;14.10;93968.00;;;;7384903;19;20140;-78
2023/07/26 10:08:49;;;;;;;6.03;2.38;;;;;12.70;93981.00;;;;7379398;19;20145;-73
2023/07/26 10:11:21;;;;;;;2.30;1.92;;;;;12.30;93988.00;;;;7380820;19;20488;-75
2023/07/26 10:13:59;;;;;;;2.58;2.20;;;;;12.70;93987.00;;;;7388102;19;20208;-75
2023/07/26 10:16:27;;;;;;;3.38;2.28;;;;;12.60;93988.00;;;;7389970;19;20629;-74
2023/07/26 10:19:10;;;;;;;2.97;2.30;;;;;12.60;93988.00;;;;7388563;19;20494;-74
2023/07/26 10:21:40;;;;;;;6.18;2.00;;;;;12.70;93983.00;;;;7389523;19;20597;-74
2023/07/26 10:24:21;;;;;;;2.47;1.80;;;;;13.10;93975.00;;;;7387953;19;20221;-81
2023/07/26 10:27:00;;;;;;;2.95;2.00;;;;;13.20;93967.00;;;;7391066;19;20577;-78
2023/07/26 10:29:36;;;;;;;2.85;2.20;;;;;14.00;93927.00;;;;7387803;19;20141;-75
2023/07/26 10:32:07;;;;;;;1.90;1.70;;;;;15.10;93975.00;;;;7388201;19;20160;-74
2023/07/26 10:34:52;;;;;;;1.90;1.80;;;;;14.60;93964.00;;;;7390418;19;20151;-74
2023/07/26 10:37:20;;;;;;;2.75;1.88;;;;;14.50;93975.00;;;;7389377;19;20820;-80
2023/07/26 10:39:57;;;;;;;2.38;1.90;;;;;13.70;93986.00;;;;7387938;19;20141;-77
2023/07/26 10:42:27;;;;;;;3.15;2.13;;;;;14.20;93969.00;;;;7387761;19;20137;-74
2023/07/26 10:45:25;;;;;;;2.20;1.90;;;;;14.90;93964.00;;;;7389285;19;20607;-76
2023/07/26 10:48:00;;;;;;;2.22;1.92;;;;;14.50;93963.00;;;;7390788;19;20607;-75
2023/07/26 10:50:37;;;;;;;4.68;2.22;;;;;14.60;93960.00;;;;7390700;19;20200;-75
2023/07/26 10:53:27;;;;;;;3.13;2.47;;;;;14.70;93954.00;;;;7389935;19;20168;-73
2023/07/26 10:56:21;;;;;;;3.58;1.80;;;;;14.70;93964.00;;;;7389520;19;20160;-74
2023/07/26 10:59:25;;;;;;;3.35;1.65;;;;;14.80;93966.00;;;;7389306;19;20611;-77
2023/07/26 11:02:04;;;;;;;3.35;2.30;;;;;15.80;93964.00;;;;7389797;19;20176;-77
2023/07/26 11:04:44;;;;;;;2.42;1.98;;;;;14.60;93966.00;;;;7389980;19;20133;-74
2023/07/26 11:07:12;;;;;;;4.22;2.25;;;;;15.00;93928.00;;;;7388635;19;20209;-74
2023/07/26 11:09:49;;;;;;;4.38;2.33;;;;;15.50;93950.00;;;;7387022;19;20588;-73
2023/07/26 11:12:24;;;;;;;3.47;2.28;;;;;16.20;93944.00;;;;7389794;19;20132;-77
2023/07/26 11:15:00;;;;;;;2.58;2.20;;;;;15.30;93911.00;;;;7387872;19;20141;-76
2023/07/26 11:17:47;;;;;;;3.55;2.38;;;;;16.30;93945.00;;;;7387488;19;20232;-75
2023/07/26 11:20:29;;;;;;;3.15;2.40;;;;;16.70;93926.00;;;;7387270;19;20265;-75
2023/07/26 11:22:56;;;;;;;3.50;2.10;;;;;17.00;93913.00;;;;7386457;19;20629;-74
2023/07/26 11:25:35;;;;;;;2.70;2.20;;;;;17.20;93910.00;;;;7394013;19;20140;-75
2023/07/26 11:28:10;;;;;;;3.15;2.35;;;;;16.70;93951.00;;;;7387869;19;20490;-75
2023/07/26 11:30:46;;;;;;;3.00;2.10;;;;;17.10;93909.00;;;;7387360;19;20136;-74
2023/07/26 11:33:33;;;;;;;5.65;2.45;;;;;17.40;93904.00;;;;7386275;19;20263;-77
2023/07/26 11:36:08;;;;;;;4.05;2.30;;;;;18.30;93931.00;;;;7385934;19;20268;-75
2023/07/26 11:38:43;;;;;;;3.10;2.22;;;;;17.20;93929.00;;;;7388144;19;20144;-77
2023/07/26 11:41:21;;;;;;;2.60;2.00;;;;;16.80;93951.00;;;;7388628;19;20564;-75
2023/07/26 11:43:55;;;;;;;3.20;2.20;;;;;16.30;93939.00;;;;7386289;19;20138;-76
2023/07/26 11:46:28;;;;;;;2.60;2.40;;;;;15.40;93968.00;;;;7385862;19;20150;-76
2023/07/26 11:49:03;;;;;;;9.15;2.30;;;;;15.00;93969.00;;;;7380936;19;20156;-76
2023/07/26 11:51:35;;;;;;;4.35;2.55;;;;;15.10;93974.00;;;;7387422;19;20173;-75
2023/07/26 11:54:10;;;;;;;3.92;2.72;;;;;15.20;93973.00;;;;7386364;19;20588;-76
2023/07/26 11:56:37;;;;;;;3.08;2.40;;;;;15.20;93973.00;;;;7385460;19;20145;-74
2023/07/26 11:59:13;;;;;;;3.25;2.42;;;;;15.20;93968.00;;;;7386827;19;20144;-77
2023/07/26 12:01:42;;;;;;;3.72;2.60;;;;;15.00;93974.00;;;;7386016;19;20169;-76
2023/07/26 12:04:17;;;;;;;4.00;2.40;;;;;15.80;93963.00;;;;7386190;19;20854;-73
2023/07/26 12:06:51;;;;;;;2.80;2.50;;;;;15.90;93966.00;;;;7381341;19;20597;-76
2023/07/26 12:09:19;;;;;;;3.35;2.70;;;;;16.10;93959.00;;;;7382512;19;20145;-77
2023/07/26 12:11:55;;;;;;;3.35;2.47;;;;;16.20;93974.00;;;;7386357;19;20449;-80
2023/07/26 12:14:31;;;;;;;3.33;2.50;;;;;16.60;93964.00;;;;7384291;19;20139;-77
2023/07/26 12:17:19;;;;;;;3.92;2.78;;;;;16.80;93973.00;;;;7383283;19;20167;-74
2023/07/26 12:20:03;;;;;;;3.45;2.55;;;;;17.20;93976.00;;;;7382937;19;20121;-75
2023/07/26 12:22:58;;;;;;;4.30;2.40;;;;;18.20;93933.00;;;;7380840;19;20152;-76
2023/07/26 12:25:37;;;;;;;4.32;2.75;;;;;19.20;93931.00;;;;7384665;19;20129;-73
2023/07/26 12:28:12;;;;;;;3.95;2.63;;;;;20.80;93971.00;;;;7383783;19;20129;-78
2023/07/26 12:30:58;;;;;;;3.58;2.40;;;;;19.50;93971.00;;;;7382509;19;20541;-80
2023/07/26 12:33:33;;;;;;;3.75;2.53;;;;;18.90;93962.00;;;;7378635;19;20698;-78
2023/07/26 12:36:01;;;;;;;4.90;2.70;;;;;19.40;93959.00;;;;7374673;19;20151;-79
2023/07/26 12:38:35;;;;;;;4.50;2.55;;;;;19.90;93974.00;;;;7380142;19;20132;-82
2023/07/26 12:41:03;;;;;;;4.53;2.53;;;;;18.30;93935.00;;;;7383059;19;20465;-76
2023/07/26 12:43:31;;;;;;;2.60;2.05;;;;;19.20;93948.00;;;;7385405;19;20208;-76
2023/07/26 12:46:08;;;;;;;2.80;2.28;;;;;19.00;93962.00;;;;7385255;19;20148;-76
2023/07/26 12:48:42;;;;;;;2.55;2.22;;;;;18.80;93981.00;;;;7388194;19;20535;-77
2023/07/26 12:51:17;;;;;;;2.38;2.17;;;;;18.20;93946.00;;;;7383906;19;20128;-77